Time,TemperatureF,DewpointF,PressureIn,WindDirection,WindDirectionDegrees,WindSpeedMPH,WindSpeedGustMPH,Humidity,HourlyPrecipIn,Conditions,Clouds,dailyrainin,SoftwareType,DateUTC
2013-03-12 00:03:00,68.6,64.9,29.96,ENE,64,0.0,-999.0,88,0.00,,,0.00,PyWeather,2013-03-12 10:03:00,
2013-03-12 00:08:00,68.4,64.7,29.96,ENE,65,0.0,-999.0,88,0.00,,,0.00,PyWeather,2013-03-12 10:08:00,
2013-03-12 00:13:00,68.2,64.8,29.96,ENE,65,0.0,-999.0,89,0.00,,,0.00,PyWeather,2013-03-12 10:13:00,
2013-03-12 00:18:00,68.2,64.8,29.96,ENE,65,0.0,-999.0,89,0.00,,,0.00,PyWeather,2013-03-12 10:18:00,
2013-03-12 00:23:00,68.5,65.1,29.95,ENE,65,0.0,-999.0,89,0.00,,,0.00,PyWeather,2013-03-12 10:23:00,
2013-03-12 00:28:00,68.7,65.3,29.95,ENE,66,0.0,-999.0,89,0.00,,,0.00,PyWeather,2013-03-12 10:28:00,
2013-03-12 00:33:00,68.8,65.4,29.95,NE,35,0.0,-999.0,89,0.00,,,0.00,PyWeather,2013-03-12 10:33:00,
2013-03-12 00:38:00,68.7,65.3,29.95,NNE,29,1.0,-999.0,89,0.00,,,0.00,PyWeather,2013-03-12 10:38:00,
2013-03-12 00:43:00,68.7,65.3,29.94,NNE,29,1.0,-999.0,89,0.00,,,0.00,PyWeather,2013-03-12 10:43:00,
2013-03-12 00:48:00,68.8,65.4,29.95,North,9,1.0,-999.0,89,0.00,,,0.00,PyWeather,2013-03-12 10:48:00,
2013-03-12 00:53:00,68.8,65.4,29.95,North,5,3.0,-999.0,89,0.00,,,0.00,PyWeather,2013-03-12 10:53:00,
2013-03-12 00:58:00,68.8,65.4,29.94,NNE,16,2.0,-999.0,89,0.00,,,0.00,PyWeather,2013-03-12 10:58:00,
2013-03-12 01:03:00,68.7,65.3,29.94,NNE,16,1.0,-999.0,89,0.00,,,0.00,PyWeather,2013-03-12 11:03:00,
2013-03-12 01:08:00,68.8,65.4,29.95,NNE,16,1.0,-999.0,89,0.00,,,0.00,PyWeather,2013-03-12 11:08:00,
2013-03-12 01:13:00,68.8,65.4,29.94,NNE,16,1.0,-999.0,89,0.00,,,0.00,PyWeather,2013-03-12 11:13:00,
2013-03-12 01:18:00,68.8,65.4,29.95,NNE,17,0.0,-999.0,89,0.00,,,0.00,PyWeather,2013-03-12 11:18:00,
2013-03-12 01:24:00,68.9,65.5,29.94,NNE,17,0.0,-999.0,89,0.00,,,0.00,PyWeather,2013-03-12 11:24:00,
2013-03-12 01:29:00,68.9,65.5,29.93,NNE,17,0.0,-999.0,89,0.00,,,0.00,PyWeather,2013-03-12 11:29:00,
2013-03-12 01:34:00,69.0,65.6,29.93,NNE,16,0.0,-999.0,89,0.00,,,0.00,PyWeather,2013-03-12 11:34:00,
2013-03-12 01:39:00,68.8,65.1,29.93,NNE,17,0.0,-999.0,88,0.00,,,0.00,PyWeather,2013-03-12 11:39:00,
2013-03-12 01:44:00,68.7,65.0,29.93,NNE,17,0.0,-999.0,88,0.00,,,0.00,PyWeather,2013-03-12 11:44:00,
2013-03-12 01:49:00,68.6,64.9,29.92,NNE,16,1.0,-999.0,88,0.00,,,0.00,PyWeather,2013-03-12 11:49:00,
2013-03-12 01:54:00,68.6,65.2,29.92,NNE,17,1.0,-999.0,89,0.00,,,0.00,PyWeather,2013-03-12 11:54:00,
2013-03-12 01:59:00,68.7,65.3,29.91,NNE,19,1.0,-999.0,89,0.00,,,0.00,PyWeather,2013-03-12 11:59:00,
2013-03-12 02:04:00,68.7,65.0,29.92,NNE,19,2.0,-999.0,88,0.00,,,0.00,PyWeather,2013-03-12 12:04:00,
2013-03-12 02:09:00,68.5,64.8,29.91,NNE,24,3.0,-999.0,88,0.00,,,0.00,PyWeather,2013-03-12 12:09:00,
2013-03-12 02:14:00,68.3,64.9,29.91,NNE,27,3.0,-999.0,89,0.00,,,0.00,PyWeather,2013-03-12 12:14:00,
2013-03-12 02:19:00,68.2,64.8,29.91,NNE,12,4.0,-999.0,89,0.00,,,0.00,PyWeather,2013-03-12 12:19:00,
2013-03-12 02:24:00,68.0,64.6,29.91,NNE,15,3.0,-999.0,89,0.00,,,0.00,PyWeather,2013-03-12 12:24:00,
2013-03-12 02:29:00,67.9,64.5,29.91,NNE,17,3.0,-999.0,89,0.00,,,0.00,PyWeather,2013-03-12 12:29:00,
2013-03-12 02:34:00,67.9,64.5,29.91,North,11,2.0,-999.0,89,0.00,,,0.00,PyWeather,2013-03-12 12:34:00,
2013-03-12 02:39:00,67.9,64.5,29.91,NNE,17,1.0,-999.0,89,0.00,,,0.00,PyWeather,2013-03-12 12:39:00,
2013-03-12 02:44:00,67.9,64.5,29.91,NNE,33,1.0,-999.0,89,0.00,,,0.00,PyWeather,2013-03-12 12:44:00,
2013-03-12 02:49:00,68.1,64.7,29.91,NE,35,2.0,-999.0,89,0.00,,,0.00,PyWeather,2013-03-12 12:49:00,
2013-03-12 02:54:00,68.3,65.2,29.91,NE,34,1.0,-999.0,90,0.00,,,0.00,PyWeather,2013-03-12 12:54:00,
2013-03-12 02:59:00,68.4,65.0,29.91,NE,36,0.0,-999.0,89,0.00,,,0.00,PyWeather,2013-03-12 12:59:00,
2013-03-12 03:04:00,68.4,65.0,29.91,NE,36,0.0,-999.0,89,0.00,,,0.00,PyWeather,2013-03-12 13:04:00,
2013-03-12 03:09:00,68.2,64.8,29.91,ENE,67,1.0,-999.0,89,0.00,,,0.00,PyWeather,2013-03-12 13:09:00,
2013-03-12 03:14:00,67.9,64.5,29.91,ENE,66,1.0,-999.0,89,0.00,,,0.00,PyWeather,2013-03-12 13:14:00,
2013-03-12 03:19:00,67.7,64.3,29.90,ENE,66,0.0,-999.0,89,0.00,,,0.00,PyWeather,2013-03-12 13:19:00,
2013-03-12 03:24:00,67.4,64.0,29.90,ENE,76,1.0,-999.0,89,0.00,,,0.00,PyWeather,2013-03-12 13:24:00,
2013-03-12 03:29:00,67.3,63.9,29.90,ENE,76,1.0,-999.0,89,0.00,,,0.00,PyWeather,2013-03-12 13:29:00,
2013-03-12 03:34:00,67.4,64.0,29.90,ENE,76,1.0,-999.0,89,0.00,,,0.00,PyWeather,2013-03-12 13:34:00,
2013-03-12 03:39:00,67.4,64.3,29.89,ENE,76,0.0,-999.0,90,0.00,,,0.00,PyWeather,2013-03-12 13:39:00,
2013-03-12 03:44:00,67.4,64.3,29.89,ENE,76,0.0,-999.0,90,0.00,,,0.00,PyWeather,2013-03-12 13:44:00,
2013-03-12 03:49:00,67.6,64.5,29.89,ENE,76,0.0,-999.0,90,0.00,,,0.00,PyWeather,2013-03-12 13:49:00,
2013-03-12 03:54:00,67.8,64.7,29.89,ENE,74,0.0,-999.0,90,0.00,,,0.00,PyWeather,2013-03-12 13:54:00,
2013-03-12 03:59:00,67.9,64.8,29.89,NNE,16,0.0,-999.0,90,0.00,,,0.00,PyWeather,2013-03-12 13:59:00,
2013-03-12 04:04:00,68.1,65.0,29.89,NNE,17,0.0,-999.0,90,0.00,,,0.00,PyWeather,2013-03-12 14:04:00,
2013-03-12 04:09:00,68.3,65.2,29.88,NNE,17,0.0,-999.0,90,0.00,,,0.00,PyWeather,2013-03-12 14:09:00,
2013-03-12 04:14:00,68.4,65.3,29.88,NNE,16,1.0,-999.0,90,0.00,,,0.00,PyWeather,2013-03-12 14:14:00,
2013-03-12 04:19:00,68.3,65.2,29.89,North,9,3.0,-999.0,90,0.00,,,0.00,PyWeather,2013-03-12 14:19:00,
2013-03-12 04:24:00,68.0,64.9,29.89,North,9,4.0,-999.0,90,0.00,,,0.00,PyWeather,2013-03-12 14:24:00,
2013-03-12 04:29:00,67.8,64.7,29.89,North,9,4.0,-999.0,90,0.00,,,0.00,PyWeather,2013-03-12 14:29:00,
2013-03-12 04:34:00,67.8,64.7,29.90,North,9,4.0,-999.0,90,0.00,,,0.00,PyWeather,2013-03-12 14:34:00,
2013-03-12 04:39:00,67.7,64.6,29.90,NNE,23,4.0,-999.0,90,0.00,,,0.00,PyWeather,2013-03-12 14:39:00,
2013-03-12 04:44:00,67.6,64.5,29.89,NNE,24,4.0,-999.0,90,0.00,,,0.00,PyWeather,2013-03-12 14:44:00,
2013-03-12 04:49:00,67.7,65.0,29.89,NNE,27,4.0,-999.0,91,0.00,,,0.00,PyWeather,2013-03-12 14:49:00,
2013-03-12 04:54:00,67.8,65.1,29.89,NNE,32,4.0,-999.0,91,0.00,,,0.00,PyWeather,2013-03-12 14:54:00,
2013-03-12 04:59:00,67.9,65.2,29.89,NNE,28,3.0,-999.0,91,0.00,,,0.00,PyWeather,2013-03-12 14:59:00,
2013-03-12 05:04:00,68.0,65.2,29.90,NNE,17,3.0,-999.0,91,0.00,,,0.00,PyWeather,2013-03-12 15:04:00,
2013-03-12 05:09:00,67.9,65.2,29.90,NNE,20,4.0,-999.0,91,0.00,,,0.00,PyWeather,2013-03-12 15:09:00,
2013-03-12 05:14:00,67.9,65.2,29.90,NNE,22,3.0,-999.0,91,0.00,,,0.00,PyWeather,2013-03-12 15:14:00,
2013-03-12 05:19:00,67.8,65.1,29.90,NNE,22,3.0,-999.0,91,0.00,,,0.00,PyWeather,2013-03-12 15:19:00,
2013-03-12 05:24:00,67.8,65.1,29.91,NNE,20,3.0,-999.0,91,0.00,,,0.00,PyWeather,2013-03-12 15:24:00,
2013-03-12 05:29:00,67.8,65.1,29.91,NE,44,2.0,-999.0,91,0.00,,,0.00,PyWeather,2013-03-12 15:29:00,
2013-03-12 05:34:00,67.9,65.2,29.91,ENE,57,3.0,-999.0,91,0.00,,,0.00,PyWeather,2013-03-12 15:34:00,
2013-03-12 05:39:00,68.0,65.2,29.91,ENE,59,3.0,-999.0,91,0.00,,,0.00,PyWeather,2013-03-12 15:39:00,
2013-03-12 05:44:00,68.0,65.2,29.91,NE,35,2.0,-999.0,91,0.00,,,0.00,PyWeather,2013-03-12 15:44:00,
2013-03-12 05:49:00,68.2,65.4,29.92,NE,36,2.0,-999.0,91,0.00,,,0.00,PyWeather,2013-03-12 15:49:00,
2013-03-12 05:54:00,68.1,65.3,29.92,NE,40,3.0,-999.0,91,0.00,,,0.00,PyWeather,2013-03-12 15:54:00,
2013-03-12 05:59:00,68.2,65.4,29.92,NE,40,3.0,-999.0,91,0.00,,,0.00,PyWeather,2013-03-12 15:59:00,
2013-03-12 06:04:00,68.2,65.4,29.92,ENE,58,2.0,-999.0,91,0.00,,,0.00,PyWeather,2013-03-12 16:04:00,
2013-03-12 06:09:00,68.1,65.3,29.92,ENE,71,2.0,-999.0,91,0.00,,,0.00,PyWeather,2013-03-12 16:09:00,
2013-03-12 06:14:00,67.8,65.1,29.92,ENE,63,3.0,-999.0,91,0.00,,,0.00,PyWeather,2013-03-12 16:14:00,
2013-03-12 06:19:00,67.6,64.9,29.93,NE,54,3.0,-999.0,91,0.00,,,0.00,PyWeather,2013-03-12 16:19:00,
2013-03-12 06:24:00,67.7,65.0,29.92,ENE,75,3.0,-999.0,91,0.00,,,0.00,PyWeather,2013-03-12 16:24:00,
2013-03-12 06:29:00,67.6,64.9,29.93,ENE,61,2.0,-999.0,91,0.00,,,0.00,PyWeather,2013-03-12 16:29:00,
2013-03-12 06:34:00,67.3,64.6,29.93,ENE,61,3.0,-999.0,91,0.00,,,0.00,PyWeather,2013-03-12 16:34:00,
2013-03-12 06:39:00,67.5,64.8,29.93,ENE,69,2.0,-999.0,91,0.00,,,0.00,PyWeather,2013-03-12 16:39:00,
2013-03-12 06:44:00,67.6,64.9,29.93,ENE,59,2.0,-999.0,91,0.00,,,0.00,PyWeather,2013-03-12 16:44:00,
2013-03-12 06:49:00,67.8,65.1,29.93,ENE,61,2.0,-999.0,91,0.00,,,0.00,PyWeather,2013-03-12 16:49:00,
2013-03-12 06:54:00,68.2,65.4,29.94,ENE,57,3.0,-999.0,91,0.00,,,0.00,PyWeather,2013-03-12 16:54:00,
2013-03-12 06:59:00,68.5,65.7,29.93,NE,56,3.0,-999.0,91,0.00,,,0.00,PyWeather,2013-03-12 16:59:00,
2013-03-12 07:04:00,68.5,65.7,29.94,NE,38,3.0,-999.0,91,0.00,,,0.00,PyWeather,2013-03-12 17:04:00,
2013-03-12 07:09:00,68.6,65.8,29.93,NE,44,4.0,-999.0,91,0.00,,,0.00,PyWeather,2013-03-12 17:09:00,
2013-03-12 07:14:00,68.7,65.9,29.93,NE,49,4.0,-999.0,91,0.00,,,0.00,PyWeather,2013-03-12 17:14:00,
2013-03-12 07:19:00,68.7,65.9,29.94,NE,38,4.0,-999.0,91,0.00,,,0.00,PyWeather,2013-03-12 17:19:00,
2013-03-12 07:24:00,68.8,66.0,29.94,NE,37,4.0,-999.0,91,0.00,,,0.00,PyWeather,2013-03-12 17:24:00,
2013-03-12 07:29:00,68.8,66.0,29.94,ENE,57,3.0,-999.0,91,0.00,,,0.00,PyWeather,2013-03-12 17:29:00,
2013-03-12 07:34:00,68.9,66.1,29.94,NE,50,3.0,-999.0,91,0.00,,,0.00,PyWeather,2013-03-12 17:34:00,
2013-03-12 07:39:00,69.0,66.2,29.95,NE,45,4.0,-999.0,91,0.00,,,0.00,PyWeather,2013-03-12 17:39:00,
2013-03-12 07:44:00,69.1,66.3,29.95,NE,34,4.0,-999.0,91,0.00,,,0.00,PyWeather,2013-03-12 17:44:00,
2013-03-12 07:49:00,69.2,66.4,29.95,NE,41,4.0,-999.0,91,0.00,,,0.00,PyWeather,2013-03-12 17:49:00,
2013-03-12 07:54:00,69.3,66.5,29.95,ENE,57,3.0,-999.0,91,0.00,,,0.00,PyWeather,2013-03-12 17:54:00,
2013-03-12 07:59:00,69.2,66.4,29.95,NE,53,2.0,-999.0,91,0.00,,,0.00,PyWeather,2013-03-12 17:59:00,
2013-03-12 08:04:00,69.3,66.5,29.96,NNE,32,3.0,-999.0,91,0.00,,,0.00,PyWeather,2013-03-12 18:04:00,
2013-03-12 08:11:00,69.5,66.4,29.95,NE,48,2.0,-999.0,90,0.00,,,0.00,PyWeather,2013-03-12 18:11:00,
2013-03-12 08:16:00,69.6,66.5,29.96,NE,40,1.0,-999.0,90,0.00,,,0.00,PyWeather,2013-03-12 18:16:00,
2013-03-12 08:22:00,69.7,66.6,29.96,NE,34,1.0,-999.0,90,0.00,,,0.00,PyWeather,2013-03-12 18:22:00,
2013-03-12 08:27:00,69.9,66.8,29.96,ENE,57,2.0,-999.0,90,0.00,,,0.00,PyWeather,2013-03-12 18:27:00,
2013-03-12 08:38:00,70.1,66.7,29.96,NE,34,4.0,-999.0,89,0.00,,,0.00,PyWeather,2013-03-12 18:38:00,
2013-03-12 08:44:00,70.4,67.0,29.96,NNE,30,4.0,-999.0,89,0.00,,,0.00,PyWeather,2013-03-12 18:44:00,
2013-03-12 08:49:00,70.6,67.2,29.96,NNE,23,3.0,-999.0,89,0.00,,,0.00,PyWeather,2013-03-12 18:49:00,
2013-03-12 08:54:00,70.7,67.0,29.97,NNE,19,3.0,-999.0,88,0.00,,,0.00,PyWeather,2013-03-12 18:54:00,
2013-03-12 08:59:00,70.8,67.1,29.97,NNE,25,4.0,-999.0,88,0.00,,,0.00,PyWeather,2013-03-12 18:59:00,
2013-03-12 12:34:00,76.4,66.9,29.94,North,11,7.0,-999.0,72,0.00,,,0.00,PyWeather,2013-03-12 22:34:00,
2013-03-12 12:40:00,76.5,67.8,29.94,North,350,8.0,14.0,74,0.00,,,0.00,PyWeather,2013-03-12 22:40:00,
2013-03-12 12:45:00,76.2,67.5,29.94,North,9,9.0,14.0,74,0.00,,,0.00,PyWeather,2013-03-12 22:45:00,
2013-03-12 12:50:00,75.8,67.1,29.94,North,5,9.0,16.0,74,0.00,,,0.00,PyWeather,2013-03-12 22:50:00,
2013-03-12 12:55:00,76.2,67.1,29.93,NNW,346,9.0,16.0,73,0.00,,,0.00,PyWeather,2013-03-12 22:55:00,
2013-03-12 13:00:00,76.3,68.0,29.93,North,355,9.0,-999.0,75,0.00,,,0.00,PyWeather,2013-03-12 23:00:00,
2013-03-12 13:05:00,76.4,68.1,29.93,NNW,348,9.0,-999.0,75,0.00,,,0.00,PyWeather,2013-03-12 23:05:00,
2013-03-12 13:10:00,76.0,67.3,29.93,North,360,10.0,-999.0,74,0.00,,,0.00,PyWeather,2013-03-12 23:10:00,
2013-03-12 13:15:00,76.2,67.5,29.92,NNE,31,9.0,-999.0,74,0.00,,,0.00,PyWeather,2013-03-12 23:15:00,
2013-03-12 13:20:00,76.6,67.1,29.92,North,349,9.0,16.0,72,0.00,,,0.00,PyWeather,2013-03-12 23:20:00,
2013-03-12 13:25:00,76.6,67.1,29.92,North,360,9.0,16.0,72,0.00,,,0.00,PyWeather,2013-03-12 23:25:00,
2013-03-12 13:30:00,76.4,66.9,29.92,North,9,10.0,18.0,72,0.00,,,0.00,PyWeather,2013-03-12 23:30:00,
2013-03-12 13:35:00,76.6,67.1,29.92,North,360,10.0,18.0,72,0.00,,,0.00,PyWeather,2013-03-12 23:35:00,
2013-03-12 13:40:00,76.7,67.2,29.92,NNE,31,9.0,17.0,72,0.00,,,0.00,PyWeather,2013-03-12 23:40:00,
2013-03-12 13:46:00,76.6,67.1,29.91,North,5,9.0,17.0,72,0.00,,,0.00,PyWeather,2013-03-12 23:46:00,
2013-03-12 13:51:00,76.2,67.1,29.91,North,9,10.0,-999.0,73,0.00,,,0.00,PyWeather,2013-03-12 23:51:00,
2013-03-12 13:56:00,76.7,67.2,29.91,NE,36,10.0,-999.0,72,0.00,,,0.00,PyWeather,2013-03-12 23:56:00,
2013-03-12 14:01:00,76.4,66.1,29.92,NNE,24,11.0,-999.0,70,0.00,,,0.00,PyWeather,2013-03-13 00:01:00,
2013-03-12 14:06:00,75.7,65.4,29.92,North,9,11.0,-999.0,70,0.00,,,0.00,PyWeather,2013-03-13 00:06:00,
2013-03-12 14:11:00,75.8,66.3,29.91,NNE,32,11.0,18.0,72,0.00,,,0.00,PyWeather,2013-03-13 00:11:00,
2013-03-12 14:16:00,75.5,66.4,29.91,NNE,20,11.0,18.0,73,0.00,,,0.00,PyWeather,2013-03-13 00:16:00,
2013-03-12 14:21:00,75.6,66.1,29.91,North,9,11.0,-999.0,72,0.00,,,0.00,PyWeather,2013-03-13 00:21:00,
2013-03-12 14:26:00,75.5,66.0,29.91,North,360,11.0,-999.0,72,0.00,,,0.00,PyWeather,2013-03-13 00:26:00,
2013-03-12 14:31:00,75.6,65.3,29.91,NNE,19,11.0,18.0,70,0.00,,,0.00,PyWeather,2013-03-13 00:31:00,
2013-03-12 14:36:00,75.4,64.7,29.91,North,9,12.0,18.0,69,0.00,,,0.00,PyWeather,2013-03-13 00:36:00,
2013-03-12 14:41:00,75.9,66.4,29.91,NNE,21,11.0,-999.0,72,0.00,,,0.00,PyWeather,2013-03-13 00:41:00,
2013-03-12 14:46:00,75.8,64.7,29.91,North,5,10.0,-999.0,68,0.00,,,0.00,PyWeather,2013-03-13 00:46:00,
2013-03-12 14:51:00,75.4,65.1,29.91,NE,40,11.0,17.0,70,0.00,,,0.00,PyWeather,2013-03-13 00:51:00,
2013-03-12 14:56:00,75.6,64.5,29.91,North,9,11.0,17.0,68,0.00,,,0.00,PyWeather,2013-03-13 00:56:00,
2013-03-12 15:01:00,75.3,64.6,29.91,NNE,23,11.0,-999.0,69,0.00,,,0.00,PyWeather,2013-03-13 01:01:00,
2013-03-12 15:06:00,75.3,65.4,29.91,NNE,32,11.0,-999.0,71,0.00,,,0.00,PyWeather,2013-03-13 01:06:00,
2013-03-12 15:11:00,75.8,64.3,29.91,North,11,10.0,-999.0,67,0.00,,,0.00,PyWeather,2013-03-13 01:11:00,
2013-03-12 15:16:00,75.9,63.5,29.91,North,9,10.0,-999.0,65,0.00,,,0.00,PyWeather,2013-03-13 01:16:00,
2013-03-12 15:22:00,75.7,64.2,29.91,NE,45,11.0,17.0,67,0.00,,,0.00,PyWeather,2013-03-13 01:22:00,
2013-03-12 15:27:00,75.8,63.9,29.90,North,11,11.0,17.0,66,0.00,,,0.00,PyWeather,2013-03-13 01:27:00,
2013-03-12 15:32:00,75.7,63.8,29.90,NNE,16,10.0,-999.0,66,0.00,,,0.00,PyWeather,2013-03-13 01:32:00,
2013-03-12 15:37:00,75.7,63.8,29.90,NE,36,10.0,17.0,66,0.00,,,0.00,PyWeather,2013-03-13 01:37:00,
2013-03-12 15:42:00,75.4,64.3,29.90,NNE,30,10.0,17.0,68,0.00,,,0.00,PyWeather,2013-03-13 01:42:00,
2013-03-12 15:47:00,75.4,64.3,29.90,NE,36,11.0,-999.0,68,0.00,,,0.00,PyWeather,2013-03-13 01:47:00,
2013-03-12 15:52:00,75.6,64.1,29.90,NNE,16,10.0,-999.0,67,0.00,,,0.00,PyWeather,2013-03-13 01:52:00,
2013-03-12 15:57:00,75.3,63.8,29.90,North,5,10.0,-999.0,67,0.00,,,0.00,PyWeather,2013-03-13 01:57:00,
2013-03-12 16:02:00,75.1,64.4,29.90,NE,36,9.0,-999.0,69,0.00,,,0.00,PyWeather,2013-03-13 02:02:00,
2013-03-12 16:07:00,75.3,65.0,29.90,North,9,9.0,-999.0,70,0.00,,,0.00,PyWeather,2013-03-13 02:07:00,
2013-03-12 16:12:00,75.9,64.4,29.90,NNE,28,9.0,-999.0,67,0.00,,,0.00,PyWeather,2013-03-13 02:12:00,
2013-03-12 16:17:00,75.9,64.4,29.90,North,5,8.0,-999.0,67,0.00,,,0.00,PyWeather,2013-03-13 02:17:00,
2013-03-12 16:22:00,75.6,64.1,29.90,NNE,29,9.0,-999.0,67,0.00,,,0.00,PyWeather,2013-03-13 02:22:00,
2013-03-12 16:27:00,75.6,64.1,29.90,North,9,9.0,16.0,67,0.00,,,0.00,PyWeather,2013-03-13 02:27:00,
2013-03-12 16:32:00,75.4,63.9,29.90,North,9,10.0,16.0,67,0.00,,,0.00,PyWeather,2013-03-13 02:32:00,
2013-03-12 16:37:00,75.4,64.3,29.90,North,355,10.0,-999.0,68,0.00,,,0.00,PyWeather,2013-03-13 02:37:00,
2013-03-12 16:42:00,75.0,64.8,29.90,NNE,28,9.0,-999.0,70,0.00,,,0.00,PyWeather,2013-03-13 02:42:00,
2013-03-12 16:47:00,74.8,64.2,29.90,NE,36,9.0,-999.0,69,0.00,,,0.00,PyWeather,2013-03-13 02:47:00,
2013-03-12 16:52:00,74.7,64.5,29.90,NNE,22,10.0,-999.0,70,0.00,,,0.00,PyWeather,2013-03-13 02:52:00,
2013-03-12 16:57:00,74.3,64.5,29.90,NNE,19,10.0,17.0,71,0.00,,,0.00,PyWeather,2013-03-13 02:57:00,
2013-03-12 17:03:00,74.6,64.4,29.90,NE,38,10.0,17.0,70,0.00,,,0.00,PyWeather,2013-03-13 03:03:00,
2013-03-12 17:08:00,74.3,64.9,29.91,NE,49,10.0,-999.0,72,0.00,,,0.00,PyWeather,2013-03-13 03:08:00,
2013-03-12 17:13:00,74.3,64.9,29.91,NE,46,11.0,-999.0,72,0.00,,,0.00,PyWeather,2013-03-13 03:13:00,
2013-03-12 17:18:00,74.1,64.7,29.91,NE,47,11.0,17.0,72,0.00,,,0.00,PyWeather,2013-03-13 03:18:00,
2013-03-12 17:23:00,73.8,64.4,29.91,NE,40,11.0,17.0,72,0.00,,,0.00,PyWeather,2013-03-13 03:23:00,
2013-03-12 17:28:00,73.7,64.3,29.92,NNE,29,11.0,-999.0,72,0.00,,,0.00,PyWeather,2013-03-13 03:28:00,
2013-03-12 17:33:00,73.7,64.7,29.92,NE,50,10.0,-999.0,73,0.00,,,0.00,PyWeather,2013-03-13 03:33:00,
2013-03-12 17:38:00,73.5,64.5,29.92,NE,37,10.0,-999.0,73,0.00,,,0.00,PyWeather,2013-03-13 03:38:00,
2013-03-12 17:43:00,73.1,64.5,29.92,NE,34,10.0,-999.0,74,0.00,,,0.00,PyWeather,2013-03-13 03:43:00,
2013-03-12 17:48:00,72.9,64.3,29.92,NNE,26,10.0,-999.0,74,0.00,,,0.00,PyWeather,2013-03-13 03:48:00,
2013-03-12 17:53:00,72.6,64.4,29.92,NE,43,10.0,-999.0,75,0.00,,,0.00,PyWeather,2013-03-13 03:53:00,
2013-03-12 17:58:00,72.5,64.6,29.93,NNE,28,9.0,-999.0,76,0.00,,,0.00,PyWeather,2013-03-13 03:58:00,
2013-03-12 18:00:00,72.5,64.6,29.93,NNE,18,9.0,-999.0,76,0.00,,,0.00,PyWeather,2013-03-13 04:00:00,
2013-03-12 18:02:00,72.5,64.6,29.93,NNE,26,9.0,-999.0,76,0.00,,,0.00,PyWeather,2013-03-13 04:02:00,
2013-03-12 18:04:00,72.5,64.6,29.93,NE,38,9.0,-999.0,76,0.00,,,0.00,PyWeather,2013-03-13 04:04:00,
2013-03-12 18:09:00,72.3,64.4,29.93,NE,42,9.0,-999.0,76,0.00,,,0.00,PyWeather,2013-03-13 04:09:00,
2013-03-12 18:14:00,72.3,64.4,29.93,NE,34,9.0,-999.0,76,0.00,,,0.00,PyWeather,2013-03-13 04:14:00,
2013-03-12 18:19:00,72.2,64.3,29.93,NNE,29,8.0,-999.0,76,0.00,,,0.00,PyWeather,2013-03-13 04:19:00,
2013-03-12 18:24:00,72.0,64.5,29.93,NE,42,7.0,-999.0,77,0.00,,,0.00,PyWeather,2013-03-13 04:24:00,
2013-03-12 18:29:00,71.9,64.4,29.94,NE,38,6.0,-999.0,77,0.00,,,0.00,PyWeather,2013-03-13 04:29:00,
2013-03-12 18:34:00,71.7,64.2,29.94,NE,46,5.0,-999.0,77,0.00,,,0.00,PyWeather,2013-03-13 04:34:00,
2013-03-12 18:39:00,71.7,64.2,29.94,NE,52,5.0,-999.0,77,0.00,,,0.00,PyWeather,2013-03-13 04:39:00,
2013-03-12 18:44:00,71.5,64.4,29.94,NE,50,5.0,-999.0,78,0.00,,,0.00,PyWeather,2013-03-13 04:44:00,
2013-03-12 18:54:00,71.2,64.5,29.94,NE,53,4.0,-999.0,79,0.00,,,0.00,PyWeather,2013-03-13 04:54:00,
2013-03-12 18:59:00,71.0,64.3,29.94,NE,54,4.0,-999.0,79,0.00,,,0.00,PyWeather,2013-03-13 04:59:00,
2013-03-12 19:04:00,70.8,64.4,29.94,NE,42,4.0,-999.0,80,0.00,,,0.00,PyWeather,2013-03-13 05:04:00,
2013-03-12 19:10:00,70.6,64.2,29.95,ENE,58,4.0,-999.0,80,0.00,,,0.00,PyWeather,2013-03-13 05:10:00,
2013-03-12 19:15:00,70.4,64.4,29.95,ENE,57,4.0,-999.0,81,0.00,,,0.00,PyWeather,2013-03-13 05:15:00,
2013-03-12 19:20:00,70.2,64.2,29.95,NE,56,4.0,-999.0,81,0.00,,,0.00,PyWeather,2013-03-13 05:20:00,
2013-03-12 19:25:00,70.2,64.2,29.95,NE,55,4.0,-999.0,81,0.00,,,0.00,PyWeather,2013-03-13 05:25:00,
2013-03-12 19:30:00,70.1,64.4,29.95,NE,42,4.0,-999.0,82,0.00,,,0.00,PyWeather,2013-03-13 05:30:00,
2013-03-12 19:35:00,69.9,64.2,29.95,NE,54,4.0,-999.0,82,0.00,,,0.00,PyWeather,2013-03-13 05:35:00,
2013-03-12 19:40:00,69.8,64.1,29.95,NE,49,3.0,-999.0,82,0.00,,,0.00,PyWeather,2013-03-13 05:40:00,
2013-03-12 19:45:00,69.8,64.5,29.95,NE,46,4.0,-999.0,83,0.00,,,0.00,PyWeather,2013-03-13 05:45:00,
2013-03-12 19:50:00,69.7,64.4,29.96,NE,44,4.0,-999.0,83,0.00,,,0.00,PyWeather,2013-03-13 05:50:00,
2013-03-12 19:55:00,69.6,64.3,29.96,ENE,64,4.0,-999.0,83,0.00,,,0.00,PyWeather,2013-03-13 05:55:00,
2013-03-12 20:00:00,69.4,64.1,29.96,NE,53,3.0,-999.0,83,0.00,,,0.00,PyWeather,2013-03-13 06:00:00,
2013-03-12 20:05:00,69.3,64.0,29.96,NE,55,4.0,-999.0,83,0.00,,,0.00,PyWeather,2013-03-13 06:05:00,
2013-03-12 20:10:00,69.0,63.7,29.96,ENE,61,3.0,-999.0,83,0.00,,,0.00,PyWeather,2013-03-13 06:10:00,
2013-03-12 20:15:00,68.8,63.8,29.97,ENE,63,3.0,-999.0,84,0.00,,,0.00,PyWeather,2013-03-13 06:15:00,
2013-03-12 20:20:00,68.6,63.6,29.97,ENE,62,3.0,-999.0,84,0.00,,,0.00,PyWeather,2013-03-13 06:20:00,
2013-03-12 20:25:00,68.3,63.3,29.97,ENE,61,3.0,-999.0,84,0.00,,,0.00,PyWeather,2013-03-13 06:25:00,
2013-03-12 20:30:00,68.3,63.6,29.98,ENE,65,3.0,-999.0,85,0.00,,,0.00,PyWeather,2013-03-13 06:30:00,
2013-03-12 20:36:00,68.3,63.6,29.98,ENE,69,3.0,-999.0,85,0.00,,,0.00,PyWeather,2013-03-13 06:36:00,
2013-03-12 20:41:00,68.2,63.5,29.98,NE,46,3.0,-999.0,85,0.00,,,0.00,PyWeather,2013-03-13 06:41:00,
2013-03-12 20:46:00,68.1,63.4,29.98,ENE,63,4.0,-999.0,85,0.00,,,0.00,PyWeather,2013-03-13 06:46:00,
2013-03-12 20:51:00,68.3,63.6,29.99,NE,52,5.0,-999.0,85,0.00,,,0.00,PyWeather,2013-03-13 06:51:00,
2013-03-12 20:56:00,68.3,63.6,29.99,NE,52,4.0,-999.0,85,0.00,,,0.00,PyWeather,2013-03-13 06:56:00,
2013-03-12 21:01:00,68.4,64.1,29.99,NE,40,4.0,-999.0,86,0.00,,,0.00,PyWeather,2013-03-13 07:01:00,
2013-03-12 21:06:00,68.5,64.2,29.99,NE,45,5.0,-999.0,86,0.00,,,0.00,PyWeather,2013-03-13 07:06:00,
2013-03-12 21:11:00,68.5,64.2,29.99,NE,44,5.0,-999.0,86,0.00,,,0.00,PyWeather,2013-03-13 07:11:00,
2013-03-12 21:16:00,68.5,64.2,30.00,NE,51,5.0,-999.0,86,0.00,,,0.00,PyWeather,2013-03-13 07:16:00,
2013-03-12 21:21:00,68.4,64.1,30.00,ENE,57,6.0,-999.0,86,0.00,,,0.00,PyWeather,2013-03-13 07:21:00,
2013-03-12 21:26:00,68.4,64.1,30.00,NE,52,6.0,-999.0,86,0.00,,,0.00,PyWeather,2013-03-13 07:26:00,
2013-03-12 21:31:00,68.4,64.1,30.00,NE,51,6.0,-999.0,86,0.00,,,0.00,PyWeather,2013-03-13 07:31:00,
2013-03-12 21:36:00,68.4,64.1,30.00,ENE,59,5.0,-999.0,86,0.00,,,0.00,PyWeather,2013-03-13 07:36:00,
2013-03-12 21:41:00,68.3,64.0,30.01,NE,49,5.0,-999.0,86,0.00,,,0.00,PyWeather,2013-03-13 07:41:00,
2013-03-12 21:46:00,68.3,64.0,30.01,ENE,63,5.0,-999.0,86,0.00,,,0.00,PyWeather,2013-03-13 07:46:00,
2013-03-12 21:51:00,68.1,63.8,30.01,ENE,70,5.0,-999.0,86,0.00,,,0.00,PyWeather,2013-03-13 07:51:00,
2013-03-12 21:56:00,68.0,63.7,30.01,ENE,69,5.0,-999.0,86,0.00,,,0.00,PyWeather,2013-03-13 07:56:00,
2013-03-12 22:01:00,67.8,63.5,30.01,ENE,60,5.0,-999.0,86,0.00,,,0.00,PyWeather,2013-03-13 08:01:00,
2013-03-12 22:08:00,67.7,63.4,30.01,ENE,63,5.0,-999.0,86,0.00,,,0.00,PyWeather,2013-03-13 08:08:00,
2013-03-12 22:13:00,67.7,63.4,30.01,NE,49,5.0,-999.0,86,0.00,,,0.00,PyWeather,2013-03-13 08:13:00,
2013-03-12 22:18:00,67.8,63.8,30.01,ENE,57,5.0,-999.0,87,0.00,,,0.00,PyWeather,2013-03-13 08:18:00,
2013-03-12 22:23:00,67.9,63.9,30.01,ENE,63,5.0,-999.0,87,0.00,,,0.00,PyWeather,2013-03-13 08:23:00,
2013-03-12 22:28:00,67.9,63.6,30.00,NE,54,6.0,-999.0,86,0.00,,,0.00,PyWeather,2013-03-13 08:28:00,
2013-03-12 22:33:00,68.0,63.7,30.00,NE,54,5.0,-999.0,86,0.00,,,0.00,PyWeather,2013-03-13 08:33:00,
2013-03-12 22:38:00,67.9,63.6,30.00,ENE,64,4.0,-999.0,86,0.00,,,0.00,PyWeather,2013-03-13 08:38:00,
2013-03-12 22:43:00,67.8,63.5,30.00,ENE,68,4.0,-999.0,86,0.00,,,0.00,PyWeather,2013-03-13 08:43:00,
2013-03-12 22:48:00,67.6,63.3,30.00,ENE,58,4.0,-999.0,86,0.00,,,0.00,PyWeather,2013-03-13 08:48:00,
2013-03-12 22:54:00,67.5,63.2,30.00,ENE,67,4.0,-999.0,86,0.00,,,0.00,PyWeather,2013-03-13 08:54:00,
2013-03-12 22:59:00,67.5,63.2,30.00,East,79,4.0,-999.0,86,0.00,,,0.00,PyWeather,2013-03-13 08:59:00,
2013-03-12 23:04:00,67.4,63.4,30.00,NE,51,4.0,-999.0,87,0.00,,,0.00,PyWeather,2013-03-13 09:04:00,
2013-03-12 23:09:00,67.4,63.4,30.00,NE,51,4.0,-999.0,87,0.00,,,0.00,PyWeather,2013-03-13 09:09:00,
2013-03-12 23:14:00,67.4,63.4,30.00,ENE,59,5.0,-999.0,87,0.00,,,0.00,PyWeather,2013-03-13 09:14:00,
2013-03-12 23:19:00,67.3,63.3,30.00,NE,55,4.0,-999.0,87,0.00,,,0.00,PyWeather,2013-03-13 09:19:00,
2013-03-12 23:24:00,67.3,63.3,30.00,NE,53,4.0,-999.0,87,0.00,,,0.00,PyWeather,2013-03-13 09:24:00,
2013-03-12 23:29:00,67.3,63.3,29.99,NE,48,4.0,-999.0,87,0.00,,,0.00,PyWeather,2013-03-13 09:29:00,
2013-03-12 23:34:00,67.3,63.3,29.99,NE,52,4.0,-999.0,87,0.00,,,0.00,PyWeather,2013-03-13 09:34:00,
2013-03-12 23:39:00,67.3,63.3,29.99,NE,43,4.0,-999.0,87,0.00,,,0.00,PyWeather,2013-03-13 09:39:00,
2013-03-12 23:44:00,67.3,63.3,29.99,NE,46,4.0,-999.0,87,0.00,,,0.00,PyWeather,2013-03-13 09:44:00,
2013-03-12 23:49:00,67.3,63.0,29.99,NNE,31,5.0,-999.0,86,0.00,,,0.00,PyWeather,2013-03-13 09:49:00,
2013-03-12 23:54:00,67.0,62.7,29.99,NNE,19,3.0,-999.0,86,0.00,,,0.00,PyWeather,2013-03-13 09:54:00,
2013-03-12 23:59:00,66.2,61.9,29.99,North,360,1.0,-999.0,86,0.00,,,0.00,PyWeather,2013-03-13 09:59:00,